createdAt,value
2023-03-08T00:01:14.211Z,10.15
2023-03-08T00:03:41.885Z,11.52
2023-03-08T00:06:10.028Z,11.55
2023-03-08T00:08:37.162Z,11.45
2023-03-08T00:11:08.346Z,7.72
2023-03-08T00:13:35.793Z,12.50
2023-03-08T00:16:03.839Z,12.45
2023-03-08T00:18:31.027Z,11.98
2023-03-08T00:21:11.948Z,10.18
2023-03-08T00:23:39.116Z,11.85
2023-03-08T00:26:06.315Z,10.55
2023-03-08T00:28:33.480Z,11.45
2023-03-08T00:31:11.661Z,10.98
2023-03-08T00:33:38.846Z,11.05
2023-03-08T00:36:07.429Z,11.10
2023-03-08T00:38:35.692Z,9.65
2023-03-08T00:41:03.106Z,11.30
2023-03-08T00:43:30.471Z,12.07
2023-03-08T00:45:57.822Z,9.50
2023-03-08T00:48:24.896Z,11.60
2023-03-08T00:50:52.027Z,11.80
2023-03-08T00:53:19.340Z,11.75
2023-03-08T00:55:50.451Z,12.02
2023-03-08T00:58:17.963Z,11.38
2023-03-08T01:00:45.298Z,11.27
2023-03-08T01:03:12.611Z,12.95
2023-03-08T01:05:43.581Z,14.43
2023-03-08T01:08:10.882Z,12.10
2023-03-08T01:10:37.985Z,11.52
2023-03-08T01:13:06.223Z,8.63
2023-03-08T01:15:37.366Z,14.35
2023-03-08T01:18:05.120Z,12.45
2023-03-08T01:20:32.311Z,9.68
2023-03-08T01:22:59.452Z,10.98
2023-03-08T01:25:26.543Z,12.48
2023-03-08T01:27:53.664Z,13.02
2023-03-08T01:30:20.857Z,12.50
2023-03-08T01:32:48.017Z,14.15
2023-03-08T01:35:15.276Z,12.65
2023-03-08T01:37:42.380Z,10.95
2023-03-08T01:40:09.930Z,17.60
2023-03-08T01:42:38.675Z,13.23
2023-03-08T01:45:07.164Z,12.68
2023-03-08T01:47:38.808Z,16.63
2023-03-08T01:50:10.696Z,13.20
2023-03-08T01:52:46.606Z,12.20
2023-03-08T01:55:15.884Z,15.13
2023-03-08T01:57:45.555Z,13.52
2023-03-08T02:00:17.327Z,11.82
2023-03-08T02:02:48.952Z,15.68
2023-03-08T02:05:17.015Z,11.83
2023-03-08T02:07:44.228Z,18.15
2023-03-08T02:10:12.541Z,15.70
2023-03-08T02:12:40.370Z,16.77
2023-03-08T02:15:09.105Z,15.98
2023-03-08T02:17:37.909Z,14.15
2023-03-08T02:20:14.701Z,13.63
2023-03-08T02:22:45.819Z,13.93
2023-03-08T02:25:20.650Z,13.75
2023-03-08T02:27:48.018Z,17.75
2023-03-08T02:30:17.017Z,11.98
2023-03-08T02:32:44.226Z,12.48
2023-03-08T02:35:11.857Z,12.95
2023-03-08T02:37:39.004Z,11.80
2023-03-08T02:40:06.534Z,16.40
2023-03-08T02:42:33.627Z,11.27
2023-03-08T02:45:00.735Z,13.18
2023-03-08T02:47:27.881Z,10.98
2023-03-08T02:49:54.968Z,17.23
2023-03-08T02:52:22.584Z,16.42
2023-03-08T02:54:49.697Z,13.65
2023-03-08T02:57:16.837Z,13.27
2023-03-08T02:59:43.899Z,14.70
2023-03-08T03:02:11.028Z,12.43
2023-03-08T03:04:38.341Z,13.85
2023-03-08T03:07:05.530Z,17.05
2023-03-08T03:09:34.938Z,14.00
2023-03-08T03:12:02.081Z,13.38
2023-03-08T03:14:29.427Z,16.67
2023-03-08T03:16:56.775Z,12.93
2023-03-08T03:19:23.901Z,15.10
2023-03-08T03:21:51.136Z,12.80
2023-03-08T03:24:18.347Z,12.30
2023-03-08T03:26:45.401Z,16.88
2023-03-08T03:29:12.691Z,75.50
2023-03-08T03:31:39.866Z,39.25
2023-03-08T03:34:06.997Z,14.90
2023-03-08T03:36:34.485Z,14.85
2023-03-08T03:39:01.590Z,16.38
2023-03-08T03:41:28.687Z,16.75
2023-03-08T03:43:55.796Z,15.80
2023-03-08T03:46:23.327Z,14.65
2023-03-08T03:48:50.547Z,13.25
2023-03-08T03:51:18.594Z,11.95
2023-03-08T03:53:46.021Z,14.82
2023-03-08T03:56:14.640Z,12.35
2023-03-08T03:58:42.276Z,13.20
2023-03-08T04:01:10.488Z,14.13
2023-03-08T04:03:37.672Z,15.82
2023-03-08T04:06:08.899Z,14.55
2023-03-08T04:08:41.997Z,14.27
2023-03-08T04:11:13.194Z,14.95
2023-03-08T04:13:40.314Z,16.83
2023-03-08T04:16:17.867Z,15.27
2023-03-08T04:18:45.488Z,15.63
2023-03-08T04:21:12.819Z,14.02
2023-03-08T04:23:40.336Z,12.38
2023-03-08T04:26:07.918Z,15.77
2023-03-08T04:28:35.346Z,14.55
2023-03-08T04:31:12.101Z,16.30
2023-03-08T04:33:39.372Z,18.25
2023-03-08T04:36:06.577Z,14.57
2023-03-08T04:38:33.776Z,15.50
2023-03-08T04:41:10.164Z,18.35
2023-03-08T04:43:37.604Z,14.23
2023-03-08T04:46:04.778Z,14.50
2023-03-08T04:48:32.099Z,17.95
2023-03-08T04:51:00.810Z,16.63
2023-03-08T04:53:29.011Z,16.25
2023-03-08T04:55:56.224Z,15.70
2023-03-08T04:58:23.813Z,14.63
2023-03-08T05:00:50.965Z,12.63
2023-03-08T05:03:18.284Z,16.25
2023-03-08T05:05:49.754Z,18.33
2023-03-08T05:08:17.116Z,14.75
2023-03-08T05:10:48.390Z,16.73
2023-03-08T05:13:15.617Z,16.08
2023-03-08T05:15:43.173Z,17.08
2023-03-08T05:18:10.348Z,19.88
2023-03-08T05:20:37.745Z,17.05
2023-03-08T05:23:04.911Z,34.55
2023-03-08T05:25:32.339Z,22.40
2023-03-08T05:27:59.495Z,25.17
2023-03-08T05:30:26.795Z,25.30
2023-03-08T05:32:53.940Z,19.58
2023-03-08T05:35:21.061Z,23.67
2023-03-08T05:37:48.212Z,33.25
2023-03-08T05:40:15.315Z,19.52
2023-03-08T05:42:42.613Z,20.75
2023-03-08T05:45:10.032Z,20.05
2023-03-08T05:47:37.184Z,25.88
2023-03-08T05:50:04.389Z,23.30
2023-03-08T05:52:34.479Z,19.80
2023-03-08T05:55:01.869Z,21.52
2023-03-08T05:57:29.257Z,17.42
2023-03-08T05:59:56.357Z,17.50
2023-03-08T06:02:23.532Z,16.20
2023-03-08T06:04:50.741Z,15.85
2023-03-08T06:07:18.133Z,18.13
2023-03-08T06:09:45.251Z,15.43
2023-03-08T06:12:12.310Z,18.92
2023-03-08T06:14:39.440Z,17.83
2023-03-08T06:17:06.527Z,21.70
2023-03-08T06:19:33.715Z,20.55
2023-03-08T06:22:00.844Z,18.80
2023-03-08T06:24:28.015Z,21.10
2023-03-08T06:26:56.180Z,14.45
2023-03-08T06:29:23.430Z,15.10
2023-03-08T06:31:50.517Z,13.27
2023-03-08T06:34:22.713Z,16.23
2023-03-08T06:36:54.688Z,14.02
2023-03-08T06:39:22.324Z,12.13
2023-03-08T06:41:49.459Z,9.82
2023-03-08T06:44:16.578Z,13.82
2023-03-08T06:46:43.836Z,11.65
2023-03-08T06:49:10.923Z,15.35
2023-03-08T06:51:38.082Z,14.27
2023-03-08T06:54:05.171Z,11.55
2023-03-08T06:56:32.253Z,12.90
2023-03-08T06:58:59.526Z,14.15
2023-03-08T07:01:26.708Z,13.13
2023-03-08T07:03:53.879Z,15.52
2023-03-08T07:06:21.036Z,14.25
2023-03-08T07:08:48.203Z,15.90
2023-03-08T07:11:15.323Z,17.30
2023-03-08T07:13:43.211Z,18.85
2023-03-08T07:16:11.362Z,21.15
2023-03-08T07:18:38.924Z,19.10
2023-03-08T07:21:06.507Z,22.05
2023-03-08T07:23:33.807Z,19.45
2023-03-08T07:26:00.897Z,18.27
2023-03-08T07:28:28.060Z,17.73
2023-03-08T07:30:55.144Z,16.85
2023-03-08T07:33:22.410Z,19.00
2023-03-08T07:35:50.041Z,18.02
2023-03-08T07:38:17.526Z,19.60
2023-03-08T07:40:44.688Z,20.00
2023-03-08T07:43:11.869Z,20.40
2023-03-08T07:45:39.681Z,18.77
2023-03-08T07:48:07.476Z,19.75
2023-03-08T07:50:34.931Z,21.52
2023-03-08T07:53:02.144Z,22.20
2023-03-08T07:55:29.254Z,23.52
2023-03-08T07:57:56.406Z,23.20
2023-03-08T08:00:23.613Z,25.65
2023-03-08T08:02:54.025Z,25.15
2023-03-08T08:05:26.550Z,26.60
2023-03-08T08:10:21.009Z,27.35
2023-03-08T08:12:48.105Z,42.20
2023-03-08T08:15:17.388Z,38.90
2023-03-08T08:17:44.577Z,35.13
2023-03-08T08:20:12.091Z,49.13
2023-03-08T08:22:39.239Z,29.17
2023-03-08T08:25:07.076Z,75.05
2023-03-08T08:27:34.632Z,29.08
2023-03-08T08:30:01.901Z,31.98
2023-03-08T08:32:29.096Z,31.17
2023-03-08T08:34:56.173Z,33.88
2023-03-08T08:37:23.367Z,29.83
2023-03-08T08:39:50.461Z,31.48
2023-03-08T08:42:17.613Z,32.92
2023-03-08T08:44:44.733Z,32.00
2023-03-08T08:47:11.844Z,35.67
2023-03-08T08:49:39.271Z,28.92
2023-03-08T08:52:06.448Z,33.92
2023-03-08T08:54:34.265Z,32.83
2023-03-08T08:57:01.461Z,31.77
2023-03-08T08:59:28.705Z,29.38
2023-03-08T09:01:55.955Z,38.65
2023-03-08T09:04:23.245Z,32.30
2023-03-08T09:06:50.433Z,32.83
2023-03-08T09:09:18.356Z,30.77
2023-03-08T09:11:54.594Z,35.88
2023-03-08T09:14:22.583Z,33.70
2023-03-08T09:16:49.829Z,42.90
2023-03-08T09:19:17.026Z,33.03
2023-03-08T09:21:44.179Z,35.97
2023-03-08T09:24:12.073Z,34.50
2023-03-08T09:26:39.418Z,34.10
2023-03-08T09:29:07.568Z,37.47
2023-03-08T09:31:36.187Z,37.58
2023-03-08T09:34:05.170Z,38.15
2023-03-08T09:36:32.330Z,36.80
2023-03-08T09:38:59.479Z,39.38
2023-03-08T09:41:39.625Z,35.72
2023-03-08T09:44:12.746Z,37.30
2023-03-08T09:46:49.191Z,36.80
2023-03-08T09:49:37.136Z,39.03
2023-03-08T09:52:30.926Z,36.05
2023-03-08T09:54:59.920Z,32.38
2023-03-08T09:57:31.517Z,40.72
2023-03-08T10:00:00.161Z,36.70
2023-03-08T10:02:35.204Z,34.65
2023-03-08T10:05:14.214Z,36.38
2023-03-08T10:07:55.794Z,31.73
2023-03-08T10:10:25.919Z,30.75
2023-03-08T10:12:59.740Z,28.00
2023-03-08T10:15:27.793Z,20.75
2023-03-08T10:17:59.599Z,27.05
2023-03-08T10:20:31.948Z,19.87
2023-03-08T10:23:00.437Z,22.52
2023-03-08T10:25:31.228Z,20.58
2023-03-08T10:27:59.472Z,19.15
2023-03-08T10:30:28.215Z,27.45
2023-03-08T10:32:59.531Z,18.92
2023-03-08T10:35:34.748Z,19.65
2023-03-08T10:38:01.899Z,22.42
2023-03-08T10:40:28.965Z,18.55
2023-03-08T10:43:00.923Z,17.48
2023-03-08T10:45:29.481Z,21.67
2023-03-08T10:47:56.608Z,22.27
2023-03-08T10:50:25.588Z,20.95
2023-03-08T10:52:52.735Z,18.95
2023-03-08T10:55:19.874Z,28.83
2023-03-08T10:57:52.895Z,13.10
2023-03-08T11:00:20.008Z,18.45
2023-03-08T11:02:48.245Z,12.93
2023-03-08T11:05:23.055Z,14.57
2023-03-08T11:07:54.098Z,13.43
2023-03-08T11:10:25.428Z,15.68
2023-03-08T11:13:21.816Z,13.77
2023-03-08T11:15:52.468Z,12.68
2023-03-08T11:18:19.530Z,11.43
2023-03-08T11:20:50.122Z,12.52
2023-03-08T11:23:23.559Z,14.13
2023-03-08T11:25:56.515Z,11.10
2023-03-08T11:28:33.369Z,11.02
2023-03-08T11:31:09.404Z,11.63
2023-03-08T11:33:55.248Z,9.10
2023-03-08T11:36:22.572Z,11.30
2023-03-08T11:38:54.989Z,9.48
2023-03-08T11:41:31.692Z,10.18
2023-03-08T11:44:04.697Z,8.32
2023-03-08T11:46:37.942Z,8.38
2023-03-08T11:49:10.768Z,5.97
2023-03-08T11:54:13.802Z,8.82
2023-03-08T11:56:48.403Z,5.25
2023-03-08T11:59:15.637Z,4.95
2023-03-08T12:01:48.347Z,5.53
2023-03-08T12:06:43.804Z,3.60
2023-03-08T12:09:27.865Z,4.43
2023-03-08T12:12:04.094Z,3.03
2023-03-08T12:14:32.779Z,2.45
2023-03-08T12:17:19.090Z,4.07
2023-03-08T12:19:47.648Z,2.72
2023-03-08T12:22:31.229Z,1.77
2023-03-08T12:24:58.393Z,2.03
2023-03-08T12:27:31.165Z,2.90
2023-03-08T12:30:02.897Z,1.58
2023-03-08T12:32:31.029Z,1.80
2023-03-08T12:35:24.459Z,1.20
2023-03-08T12:38:05.885Z,2.03
2023-03-08T12:40:37.991Z,2.25
2023-03-08T12:43:10.526Z,1.52
2023-03-08T12:45:38.063Z,2.97
2023-03-08T12:48:05.180Z,1.20
2023-03-08T12:50:35.782Z,1.40
2023-03-08T12:53:04.084Z,1.60
2023-03-08T12:55:31.866Z,1.10
2023-03-08T12:58:01.311Z,1.05
2023-03-08T13:00:32.615Z,1.50
2023-03-08T13:03:05.560Z,2.55
2023-03-08T13:05:32.800Z,3.95
2023-03-08T13:08:00.717Z,3.35
2023-03-08T13:10:31.540Z,1.75
2023-03-08T13:12:58.714Z,8.10
2023-03-08T13:15:26.962Z,7.32
2023-03-08T13:18:11.656Z,3.38
2023-03-08T13:20:42.293Z,2.67
2023-03-08T13:23:09.566Z,0.80
2023-03-08T13:25:58.768Z,1.15
2023-03-08T13:28:37.750Z,1.23
2023-03-08T13:31:11.766Z,3.20
2023-03-08T13:33:39.708Z,0.68
2023-03-08T13:36:08.222Z,0.70
2023-03-08T13:38:36.700Z,1.27
2023-03-08T13:41:03.862Z,1.88
2023-03-08T13:43:32.058Z,0.68
2023-03-08T13:46:00.663Z,5.57
2023-03-08T13:48:32.223Z,3.10
2023-03-08T13:51:00.246Z,1.00
2023-03-08T13:53:32.442Z,5.38
2023-03-08T13:56:03.812Z,56.70
2023-03-08T13:58:46.196Z,5.10
2023-03-08T14:01:15.268Z,16.77
2023-03-08T14:03:43.695Z,12.20
2023-03-08T14:06:30.912Z,6.35
2023-03-08T14:09:03.530Z,6.10
2023-03-08T14:11:32.456Z,5.38
2023-03-08T14:14:01.402Z,2.17
2023-03-08T14:16:32.681Z,7.18
2023-03-08T14:19:01.058Z,2.00
2023-03-08T14:21:29.473Z,1.30
2023-03-08T14:24:00.950Z,5.05
2023-03-08T14:26:39.117Z,4.63
2023-03-08T14:29:25.745Z,1.98
2023-03-08T14:31:54.529Z,1.58
2023-03-08T14:34:33.965Z,5.60
2023-03-08T14:37:02.856Z,2.58
2023-03-08T14:39:30.672Z,0.77
2023-03-08T14:41:57.829Z,1.63
2023-03-08T14:44:27.684Z,1.27
2023-03-08T14:47:03.724Z,0.77
2023-03-08T14:49:30.902Z,1.10
2023-03-08T14:51:58.139Z,1.70
2023-03-08T14:54:31.708Z,4.22
2023-03-08T14:56:59.529Z,2.47
2023-03-08T14:59:28.199Z,2.58
2023-03-08T15:01:55.682Z,0.88
2023-03-08T15:04:24.798Z,1.15
2023-03-08T15:06:52.700Z,1.00
2023-03-08T15:09:20.501Z,2.97
2023-03-08T15:11:48.534Z,2.67
2023-03-08T15:14:15.692Z,1.23
2023-03-08T15:16:42.827Z,4.50
2023-03-08T15:19:11.975Z,1.98
2023-03-08T15:21:39.185Z,0.60
2023-03-08T15:24:07.030Z,0.93
2023-03-08T15:26:34.652Z,1.85
2023-03-08T15:29:05.250Z,0.50
2023-03-08T15:31:32.391Z,1.63
2023-03-08T15:34:00.511Z,2.28
2023-03-08T15:36:32.515Z,5.78
2023-03-08T15:39:01.289Z,1.43
2023-03-08T15:41:28.407Z,1.48
2023-03-08T15:43:55.539Z,0.70
2023-03-08T15:46:22.637Z,0.60
2023-03-08T15:48:51.011Z,1.70
2023-03-08T15:51:19.304Z,6.88
2023-03-08T15:53:47.007Z,28.35
2023-03-08T15:56:14.096Z,2.15
2023-03-08T15:58:41.656Z,1.70
2023-03-08T16:01:09.027Z,3.22
2023-03-08T16:03:36.445Z,1.92
2023-03-08T16:06:04.055Z,0.63
2023-03-08T16:08:31.345Z,0.90
2023-03-08T16:11:03.850Z,0.70
2023-03-08T16:13:31.293Z,0.60
2023-03-08T16:15:59.621Z,0.40
2023-03-08T16:18:26.777Z,1.25
2023-03-08T16:20:53.994Z,0.63
2023-03-08T16:23:21.145Z,1.63
2023-03-08T16:26:08.570Z,1.98
2023-03-08T16:28:41.021Z,0.75
2023-03-08T16:31:09.151Z,2.75
2023-03-08T16:33:36.710Z,1.63
2023-03-08T16:36:03.940Z,2.05
2023-03-08T16:38:31.170Z,0.55
2023-03-08T16:41:11.509Z,1.58
2023-03-08T16:43:46.370Z,1.77
2023-03-08T16:46:15.146Z,0.70
2023-03-08T16:48:42.348Z,0.85
2023-03-08T16:51:13.747Z,1.98
2023-03-08T16:53:40.940Z,0.85
2023-03-08T16:56:08.094Z,2.13
2023-03-08T16:58:35.220Z,2.08
2023-03-08T17:01:02.420Z,3.08
2023-03-08T17:03:29.822Z,2.42
2023-03-08T17:05:56.911Z,1.88
2023-03-08T17:08:24.027Z,2.28
2023-03-08T17:10:51.141Z,6.07
2023-03-08T17:13:18.248Z,15.00
2023-03-08T17:15:47.080Z,31.05
2023-03-08T17:18:14.628Z,6.18
2023-03-08T17:20:42.430Z,2.28
2023-03-08T17:23:10.579Z,1.50
2023-03-08T17:25:40.892Z,0.80
2023-03-08T17:28:08.769Z,1.50
2023-03-08T17:30:36.296Z,2.58
2023-03-08T17:33:03.405Z,3.55
2023-03-08T17:35:30.651Z,1.55
2023-03-08T17:37:57.861Z,1.20
2023-03-08T17:40:25.106Z,1.80
2023-03-08T17:42:52.321Z,2.10
2023-03-08T17:45:19.792Z,5.85
2023-03-08T17:47:46.912Z,1.25
2023-03-08T17:50:20.757Z,2.03
2023-03-08T17:52:47.901Z,1.80
2023-03-08T17:55:14.984Z,4.57
2023-03-08T17:57:42.180Z,2.90
2023-03-08T18:00:11.916Z,3.80
2023-03-08T18:02:39.156Z,3.88
2023-03-08T18:05:06.742Z,1.83
2023-03-08T18:07:34.056Z,1.90
2023-03-08T18:10:04.302Z,3.28
2023-03-08T18:12:31.418Z,4.47
2023-03-08T18:14:58.669Z,4.60
2023-03-08T18:17:25.847Z,4.80
2023-03-08T18:19:52.932Z,2.88
2023-03-08T18:22:20.053Z,7.63
2023-03-08T18:24:47.211Z,3.53
2023-03-08T18:27:14.297Z,2.78
2023-03-08T18:29:41.473Z,3.88
2023-03-08T18:32:10.105Z,2.05
2023-03-08T18:34:38.685Z,2.70
2023-03-08T18:37:05.825Z,6.38
2023-03-08T18:39:33.008Z,8.43
2023-03-08T18:42:01.262Z,1.73
2023-03-08T18:44:28.423Z,2.45
2023-03-08T18:46:55.725Z,0.90
2023-03-08T18:49:23.053Z,1.65
2023-03-08T18:51:50.314Z,1.42
2023-03-08T18:54:20.462Z,2.58
2023-03-08T18:56:49.988Z,1.38
2023-03-08T18:59:17.144Z,1.88
2023-03-08T19:01:44.616Z,2.30
2023-03-08T19:04:11.788Z,1.70
2023-03-08T19:06:39.023Z,3.03
2023-03-08T19:09:09.922Z,1.35
2023-03-08T19:11:37.108Z,3.97
2023-03-08T19:14:04.292Z,4.72
2023-03-08T19:16:33.328Z,2.50
2023-03-08T19:19:02.387Z,3.15
2023-03-08T19:21:31.003Z,2.00
2023-03-08T19:23:58.152Z,2.28
2023-03-08T19:26:38.765Z,7.35
2023-03-08T19:29:12.131Z,2.00
2023-03-08T19:31:44.032Z,4.38
2023-03-08T19:34:13.146Z,5.37
2023-03-08T19:36:40.601Z,17.35
2023-03-08T19:39:09.254Z,13.38
2023-03-08T19:41:36.417Z,16.48
2023-03-08T19:44:07.100Z,6.40
2023-03-08T19:46:38.209Z,3.45
2023-03-08T19:49:06.307Z,3.70
2023-03-08T19:51:33.828Z,1.40
2023-03-08T19:54:01.162Z,1.48
2023-03-08T19:56:28.231Z,2.28
2023-03-08T19:58:56.775Z,3.70
2023-03-08T20:01:24.198Z,1.38
2023-03-08T20:03:51.326Z,2.33
2023-03-08T20:06:22.463Z,1.42
2023-03-08T20:08:49.852Z,5.70
2023-03-08T20:11:16.991Z,4.88
2023-03-08T20:13:44.150Z,9.15
2023-03-08T20:16:11.344Z,2.97
2023-03-08T20:18:38.427Z,1.35
2023-03-08T20:21:05.676Z,1.90
2023-03-08T20:23:32.860Z,0.80
2023-03-08T20:26:00.589Z,3.17
2023-03-08T20:28:27.733Z,1.70
2023-03-08T20:30:55.139Z,2.42
2023-03-08T20:33:22.294Z,1.23
2023-03-08T20:35:59.416Z,2.03
2023-03-08T20:38:26.912Z,4.32
2023-03-08T20:41:01.616Z,2.10
2023-03-08T20:43:29.338Z,2.78
2023-03-08T20:45:56.859Z,1.77
2023-03-08T20:48:24.346Z,3.30
2023-03-08T20:50:51.550Z,3.03
2023-03-08T20:53:18.838Z,1.80
2023-03-08T20:55:45.932Z,4.13
2023-03-08T20:58:13.037Z,4.28
2023-03-08T21:00:41.465Z,2.78
2023-03-08T21:03:08.853Z,2.10
2023-03-08T21:05:36.038Z,2.72
2023-03-08T21:08:03.845Z,2.47
2023-03-08T21:10:36.449Z,4.65
2023-03-08T21:13:06.419Z,3.85
2023-03-08T21:15:34.332Z,7.20
2023-03-08T21:18:01.738Z,6.68
2023-03-08T21:20:28.877Z,6.03
2023-03-08T21:22:55.944Z,2.03
2023-03-08T21:25:23.096Z,4.82
2023-03-08T21:27:50.262Z,1.95
2023-03-08T21:30:17.375Z,2.67
2023-03-08T21:32:44.516Z,2.85
2023-03-08T21:35:11.675Z,3.08
2023-03-08T21:37:38.813Z,3.15
2023-03-08T21:40:07.171Z,3.03
2023-03-08T21:42:35.504Z,5.57
2023-03-08T21:45:02.693Z,2.85
2023-03-08T21:47:29.829Z,3.35
2023-03-08T21:49:56.969Z,8.32
2023-03-08T21:52:24.160Z,5.68
2023-03-08T21:54:51.339Z,8.05
2023-03-08T21:57:18.463Z,5.90
2023-03-08T21:59:45.528Z,3.88
2023-03-08T22:02:12.746Z,4.40
2023-03-08T22:04:39.927Z,4.20
2023-03-08T22:07:07.143Z,4.47
2023-03-08T22:09:34.265Z,6.20
2023-03-08T22:12:01.534Z,4.88
2023-03-08T22:14:28.849Z,5.53
2023-03-08T22:16:56.522Z,3.67
2023-03-08T22:19:23.736Z,3.28
2023-03-08T22:21:50.856Z,3.38
2023-03-08T22:24:18.093Z,3.80
2023-03-08T22:26:45.258Z,3.83
2023-03-08T22:29:12.312Z,3.90
2023-03-08T22:31:39.392Z,4.15
2023-03-08T22:34:07.756Z,5.00
2023-03-08T22:36:35.221Z,15.05
2023-03-08T22:39:02.332Z,4.90
2023-03-08T22:41:29.570Z,4.18
2023-03-08T22:43:56.735Z,4.40
2023-03-08T22:46:25.324Z,5.40
2023-03-08T22:48:52.968Z,4.70
2023-03-08T22:51:21.488Z,5.63
2023-03-08T22:53:48.611Z,12.55
2023-03-08T22:56:23.015Z,14.57
2023-03-08T22:58:50.561Z,28.45
2023-03-08T23:01:21.910Z,12.95
2023-03-08T23:03:49.853Z,4.95
2023-03-08T23:06:18.202Z,3.63
2023-03-08T23:08:45.353Z,3.10
2023-03-08T23:11:12.442Z,4.18
2023-03-08T23:13:39.627Z,2.85
2023-03-08T23:16:07.445Z,6.18
2023-03-08T23:18:35.294Z,2.10
2023-03-08T23:21:06.021Z,1.90
2023-03-08T23:23:33.472Z,2.30
2023-03-08T23:26:00.726Z,2.55
2023-03-08T23:28:27.891Z,2.45
2023-03-08T23:30:54.961Z,3.10
2023-03-08T23:33:22.141Z,2.13
2023-03-08T23:35:49.863Z,2.70
2023-03-08T23:38:17.164Z,5.55
2023-03-08T23:40:44.333Z,3.92
2023-03-08T23:43:11.468Z,3.03
2023-03-08T23:45:39.732Z,4.30
2023-03-08T23:48:07.301Z,5.25
2023-03-08T23:50:34.479Z,3.88
2023-03-08T23:53:01.640Z,5.00
2023-03-08T23:55:28.715Z,6.72
2023-03-08T23:57:55.779Z,6.80
